sensor_id;sensor_type;location;lat;lon;timestamp;P1;durP1;ratioP1;P2;durP2;ratioP2
13234;SDS011;6683;48.506;9.050;2023-12-04T00:02:43;22.97;;;12.27;;
13234;SDS011;6683;48.506;9.050;2023-12-04T00:05:48;21.80;;;13.17;;
13234;SDS011;6683;48.506;9.050;2023-12-04T00:09:02;26.93;;;14.17;;
13234;SDS011;6683;48.506;9.050;2023-12-04T00:12:05;28.90;;;13.23;;
13234;SDS011;6683;48.506;9.050;2023-12-04T00:15:08;24.27;;;13.37;;
13234;SDS011;6683;48.506;9.050;2023-12-04T00:18:12;22.80;;;12.30;;
13234;SDS011;6683;48.506;9.050;2023-12-04T00:21:21;21.00;;;11.63;;
13234;SDS011;6683;48.506;9.050;2023-12-04T00:24:24;23.33;;;12.17;;
13234;SDS011;6683;48.506;9.050;2023-12-04T00:27:26;22.67;;;12.27;;
13234;SDS011;6683;48.506;9.050;2023-12-04T00:30:31;25.60;;;13.60;;
13234;SDS011;6683;48.506;9.050;2023-12-04T00:33:35;24.43;;;12.77;;
13234;SDS011;6683;48.506;9.050;2023-12-04T00:36:41;25.37;;;12.67;;
13234;SDS011;6683;48.506;9.050;2023-12-04T00:39:46;21.43;;;12.07;;
13234;SDS011;6683;48.506;9.050;2023-12-04T00:42:49;20.13;;;12.00;;
13234;SDS011;6683;48.506;9.050;2023-12-04T00:45:51;20.43;;;11.70;;
13234;SDS011;6683;48.506;9.050;2023-12-04T00:48:55;19.03;;;11.30;;
13234;SDS011;6683;48.506;9.050;2023-12-04T00:52:00;18.20;;;10.43;;
13234;SDS011;6683;48.506;9.050;2023-12-04T00:55:11;19.63;;;11.20;;
13234;SDS011;6683;48.506;9.050;2023-12-04T00:58:14;17.23;;;10.90;;
13234;SDS011;6683;48.506;9.050;2023-12-04T01:01:16;19.23;;;10.80;;
13234;SDS011;6683;48.506;9.050;2023-12-04T01:04:20;16.97;;;10.77;;
13234;SDS011;6683;48.506;9.050;2023-12-04T01:07:22;17.37;;;10.67;;
13234;SDS011;6683;48.506;9.050;2023-12-04T01:10:24;18.57;;;10.60;;
13234;SDS011;6683;48.506;9.050;2023-12-04T01:13:27;17.00;;;10.57;;
13234;SDS011;6683;48.506;9.050;2023-12-04T01:16:29;17.93;;;11.37;;
13234;SDS011;6683;48.506;9.050;2023-12-04T01:19:35;18.17;;;10.87;;
13234;SDS011;6683;48.506;9.050;2023-12-04T01:22:37;17.73;;;11.00;;
13234;SDS011;6683;48.506;9.050;2023-12-04T01:25:40;18.27;;;10.30;;
13234;SDS011;6683;48.506;9.050;2023-12-04T01:28:42;18.03;;;10.50;;
13234;SDS011;6683;48.506;9.050;2023-12-04T01:31:44;18.23;;;11.07;;
13234;SDS011;6683;48.506;9.050;2023-12-04T01:34:48;20.80;;;11.80;;
13234;SDS011;6683;48.506;9.050;2023-12-04T01:37:50;18.60;;;10.57;;
13234;SDS011;6683;48.506;9.050;2023-12-04T01:40:53;22.47;;;11.23;;
13234;SDS011;6683;48.506;9.050;2023-12-04T01:43:55;18.70;;;10.20;;
13234;SDS011;6683;48.506;9.050;2023-12-04T01:46:57;19.03;;;11.30;;
13234;SDS011;6683;48.506;9.050;2023-12-04T01:50:01;17.60;;;10.47;;
13234;SDS011;6683;48.506;9.050;2023-12-04T01:53:04;17.97;;;10.47;;
13234;SDS011;6683;48.506;9.050;2023-12-04T01:56:07;19.07;;;10.73;;
13234;SDS011;6683;48.506;9.050;2023-12-04T01:59:14;20.30;;;11.83;;
13234;SDS011;6683;48.506;9.050;2023-12-04T02:02:17;17.27;;;10.13;;
13234;SDS011;6683;48.506;9.050;2023-12-04T02:05:23;19.43;;;11.60;;
13234;SDS011;6683;48.506;9.050;2023-12-04T02:08:25;15.50;;;9.77;;
13234;SDS011;6683;48.506;9.050;2023-12-04T02:11:28;18.43;;;11.23;;
13234;SDS011;6683;48.506;9.050;2023-12-04T02:14:30;16.80;;;9.33;;
13234;SDS011;6683;48.506;9.050;2023-12-04T02:17:33;16.10;;;10.53;;
13234;SDS011;6683;48.506;9.050;2023-12-04T02:20:37;15.60;;;10.27;;
13234;SDS011;6683;48.506;9.050;2023-12-04T02:23:39;13.90;;;9.07;;
13234;SDS011;6683;48.506;9.050;2023-12-04T02:26:44;16.70;;;9.37;;
13234;SDS011;6683;48.506;9.050;2023-12-04T02:29:52;14.53;;;9.17;;
13234;SDS011;6683;48.506;9.050;2023-12-04T02:32:58;14.93;;;9.00;;
13234;SDS011;6683;48.506;9.050;2023-12-04T02:36:02;13.70;;;8.93;;
13234;SDS011;6683;48.506;9.050;2023-12-04T02:39:06;13.13;;;8.33;;
13234;SDS011;6683;48.506;9.050;2023-12-04T02:42:11;15.10;;;8.53;;
13234;SDS011;6683;48.506;9.050;2023-12-04T02:45:14;13.00;;;8.63;;
13234;SDS011;6683;48.506;9.050;2023-12-04T02:48:16;13.33;;;8.40;;
13234;SDS011;6683;48.506;9.050;2023-12-04T02:51:19;14.63;;;8.07;;
13234;SDS011;6683;48.506;9.050;2023-12-04T02:54:21;11.80;;;7.83;;
13234;SDS011;6683;48.506;9.050;2023-12-04T02:57:25;12.57;;;7.53;;
13234;SDS011;6683;48.506;9.050;2023-12-04T03:00:27;13.60;;;8.67;;
13234;SDS011;6683;48.506;9.050;2023-12-04T03:03:29;14.07;;;7.97;;
13234;SDS011;6683;48.506;9.050;2023-12-04T03:06:32;12.13;;;7.27;;
13234;SDS011;6683;48.506;9.050;2023-12-04T03:09:34;12.67;;;7.83;;
13234;SDS011;6683;48.506;9.050;2023-12-04T03:12:38;11.80;;;7.43;;
13234;SDS011;6683;48.506;9.050;2023-12-04T03:15:40;13.50;;;7.67;;
13234;SDS011;6683;48.506;9.050;2023-12-04T03:18:42;11.80;;;7.47;;
13234;SDS011;6683;48.506;9.050;2023-12-04T03:21:45;14.37;;;8.60;;
13234;SDS011;6683;48.506;9.050;2023-12-04T03:24:47;12.17;;;7.93;;
13234;SDS011;6683;48.506;9.050;2023-12-04T03:27:51;14.20;;;8.53;;
13234;SDS011;6683;48.506;9.050;2023-12-04T03:30:53;11.77;;;7.23;;
13234;SDS011;6683;48.506;9.050;2023-12-04T03:33:56;13.87;;;7.30;;
13234;SDS011;6683;48.506;9.050;2023-12-04T03:36:58;13.27;;;8.17;;
13234;SDS011;6683;48.506;9.050;2023-12-04T03:40:00;13.33;;;8.03;;
13234;SDS011;6683;48.506;9.050;2023-12-04T03:43:04;13.03;;;8.23;;
13234;SDS011;6683;48.506;9.050;2023-12-04T03:46:06;13.17;;;7.97;;
13234;SDS011;6683;48.506;9.050;2023-12-04T03:49:08;13.60;;;8.73;;
13234;SDS011;6683;48.506;9.050;2023-12-04T03:52:11;14.60;;;8.90;;
13234;SDS011;6683;48.506;9.050;2023-12-04T03:55:13;14.63;;;8.43;;
13234;SDS011;6683;48.506;9.050;2023-12-04T03:58:17;13.10;;;8.73;;
13234;SDS011;6683;48.506;9.050;2023-12-04T04:01:19;14.53;;;9.00;;
13234;SDS011;6683;48.506;9.050;2023-12-04T04:04:22;11.43;;;8.00;;
13234;SDS011;6683;48.506;9.050;2023-12-04T04:07:24;15.67;;;8.97;;
13234;SDS011;6683;48.506;9.050;2023-12-04T04:10:26;13.80;;;8.10;;
13234;SDS011;6683;48.506;9.050;2023-12-04T04:13:30;14.97;;;9.13;;
13234;SDS011;6683;48.506;9.050;2023-12-04T04:16:32;12.07;;;8.33;;
13234;SDS011;6683;48.506;9.050;2023-12-04T04:19:34;13.23;;;8.93;;
13234;SDS011;6683;48.506;9.050;2023-12-04T04:22:37;14.23;;;8.57;;
13234;SDS011;6683;48.506;9.050;2023-12-04T04:25:40;12.70;;;7.93;;
13234;SDS011;6683;48.506;9.050;2023-12-04T04:28:44;12.13;;;8.57;;
13234;SDS011;6683;48.506;9.050;2023-12-04T04:31:46;11.60;;;8.07;;
13234;SDS011;6683;48.506;9.050;2023-12-04T04:34:49;13.27;;;8.13;;
13234;SDS011;6683;48.506;9.050;2023-12-04T04:37:51;13.13;;;8.57;;
13234;SDS011;6683;48.506;9.050;2023-12-04T04:40:53;12.50;;;8.33;;
13234;SDS011;6683;48.506;9.050;2023-12-04T04:43:57;11.77;;;7.93;;
13234;SDS011;6683;48.506;9.050;2023-12-04T04:46:59;14.10;;;8.57;;
13234;SDS011;6683;48.506;9.050;2023-12-04T04:50:02;14.20;;;8.90;;
13234;SDS011;6683;48.506;9.050;2023-12-04T04:53:05;10.97;;;7.37;;
13234;SDS011;6683;48.506;9.050;2023-12-04T04:56:08;14.20;;;8.10;;
13234;SDS011;6683;48.506;9.050;2023-12-04T04:59:14;12.07;;;7.40;;
13234;SDS011;6683;48.506;9.050;2023-12-04T05:02:16;11.73;;;7.37;;
13234;SDS011;6683;48.506;9.050;2023-12-04T05:05:18;10.47;;;7.00;;
13234;SDS011;6683;48.506;9.050;2023-12-04T05:08:20;11.20;;;6.83;;
13234;SDS011;6683;48.506;9.050;2023-12-04T05:11:23;10.97;;;6.53;;
13234;SDS011;6683;48.506;9.050;2023-12-04T05:14:27;12.90;;;7.40;;
13234;SDS011;6683;48.506;9.050;2023-12-04T05:17:29;10.00;;;6.77;;
13234;SDS011;6683;48.506;9.050;2023-12-04T05:20:31;10.63;;;6.93;;
13234;SDS011;6683;48.506;9.050;2023-12-04T05:23:33;10.63;;;7.23;;
13234;SDS011;6683;48.506;9.050;2023-12-04T05:26:35;12.23;;;6.77;;
13234;SDS011;6683;48.506;9.050;2023-12-04T05:29:39;12.23;;;7.00;;
13234;SDS011;6683;48.506;9.050;2023-12-04T05:32:41;15.57;;;7.47;;
13234;SDS011;6683;48.506;9.050;2023-12-04T05:35:44;10.43;;;6.83;;
13234;SDS011;6683;48.506;9.050;2023-12-04T05:38:47;13.07;;;7.57;;
13234;SDS011;6683;48.506;9.050;2023-12-04T05:41:49;11.93;;;6.73;;
13234;SDS011;6683;48.506;9.050;2023-12-04T05:44:53;11.73;;;6.97;;
13234;SDS011;6683;48.506;9.050;2023-12-04T05:47:57;11.07;;;6.57;;
13234;SDS011;6683;48.506;9.050;2023-12-04T05:50:59;11.90;;;6.60;;
13234;SDS011;6683;48.506;9.050;2023-12-04T05:54:01;11.60;;;7.40;;
13234;SDS011;6683;48.506;9.050;2023-12-04T05:57:04;12.47;;;7.23;;
13234;SDS011;6683;48.506;9.050;2023-12-04T06:00:09;13.50;;;8.43;;
13234;SDS011;6683;48.506;9.050;2023-12-04T06:03:13;10.70;;;7.77;;
13234;SDS011;6683;48.506;9.050;2023-12-04T06:06:15;14.27;;;9.27;;
13234;SDS011;6683;48.506;9.050;2023-12-04T06:09:17;13.50;;;7.53;;
13234;SDS011;6683;48.506;9.050;2023-12-04T06:12:20;11.40;;;7.67;;
13234;SDS011;6683;48.506;9.050;2023-12-04T06:15:24;15.07;;;8.73;;
13234;SDS011;6683;48.506;9.050;2023-12-04T06:18:26;12.63;;;8.63;;
13234;SDS011;6683;48.506;9.050;2023-12-04T06:21:31;11.37;;;7.80;;
13234;SDS011;6683;48.506;9.050;2023-12-04T06:24:34;11.50;;;7.97;;
13234;SDS011;6683;48.506;9.050;2023-12-04T06:27:39;15.63;;;8.60;;
13234;SDS011;6683;48.506;9.050;2023-12-04T06:30:44;13.10;;;8.17;;
13234;SDS011;6683;48.506;9.050;2023-12-04T06:33:47;14.23;;;8.77;;
13234;SDS011;6683;48.506;9.050;2023-12-04T06:36:50;13.23;;;8.30;;
13234;SDS011;6683;48.506;9.050;2023-12-04T06:39:53;17.97;;;8.60;;
13234;SDS011;6683;48.506;9.050;2023-12-04T06:42:58;13.50;;;8.23;;
13234;SDS011;6683;48.506;9.050;2023-12-04T06:46:03;19.43;;;8.73;;
13234;SDS011;6683;48.506;9.050;2023-12-04T06:49:07;16.00;;;9.70;;
13234;SDS011;6683;48.506;9.050;2023-12-04T06:52:12;13.50;;;8.47;;
13234;SDS011;6683;48.506;9.050;2023-12-04T06:55:15;14.73;;;9.30;;
13234;SDS011;6683;48.506;9.050;2023-12-04T06:58:17;13.47;;;8.83;;
13234;SDS011;6683;48.506;9.050;2023-12-04T07:01:21;13.97;;;8.83;;
13234;SDS011;6683;48.506;9.050;2023-12-04T07:04:23;15.00;;;8.73;;
13234;SDS011;6683;48.506;9.050;2023-12-04T07:07:25;14.63;;;8.97;;
13234;SDS011;6683;48.506;9.050;2023-12-04T07:10:27;15.67;;;9.37;;
13234;SDS011;6683;48.506;9.050;2023-12-04T07:13:30;13.10;;;8.83;;
13234;SDS011;6683;48.506;9.050;2023-12-04T07:16:39;15.03;;;9.00;;
13234;SDS011;6683;48.506;9.050;2023-12-04T07:19:42;12.03;;;7.93;;
13234;SDS011;6683;48.506;9.050;2023-12-04T07:22:44;13.13;;;8.93;;
13234;SDS011;6683;48.506;9.050;2023-12-04T07:25:46;14.13;;;8.77;;
13234;SDS011;6683;48.506;9.050;2023-12-04T07:28:49;15.07;;;9.13;;
13234;SDS011;6683;48.506;9.050;2023-12-04T07:31:52;13.37;;;9.20;;
13234;SDS011;6683;48.506;9.050;2023-12-04T07:34:55;15.30;;;10.07;;
13234;SDS011;6683;48.506;9.050;2023-12-04T07:37:57;16.40;;;9.97;;
13234;SDS011;6683;48.506;9.050;2023-12-04T07:40:59;13.53;;;8.63;;
13234;SDS011;6683;48.506;9.050;2023-12-04T07:44:02;13.20;;;8.77;;
13234;SDS011;6683;48.506;9.050;2023-12-04T07:47:06;13.10;;;8.50;;
13234;SDS011;6683;48.506;9.050;2023-12-04T07:50:08;14.20;;;8.93;;
13234;SDS011;6683;48.506;9.050;2023-12-04T07:53:11;14.93;;;10.03;;
13234;SDS011;6683;48.506;9.050;2023-12-04T07:56:14;14.27;;;8.70;;
13234;SDS011;6683;48.506;9.050;2023-12-04T07:59:16;18.00;;;9.67;;
13234;SDS011;6683;48.506;9.050;2023-12-04T08:02:19;15.10;;;9.50;;
13234;SDS011;6683;48.506;9.050;2023-12-04T08:05:21;14.53;;;8.60;;
13234;SDS011;6683;48.506;9.050;2023-12-04T08:08:24;13.47;;;9.37;;
13234;SDS011;6683;48.506;9.050;2023-12-04T08:11:26;16.63;;;10.40;;
13234;SDS011;6683;48.506;9.050;2023-12-04T08:14:28;15.17;;;10.20;;
13234;SDS011;6683;48.506;9.050;2023-12-04T08:17:32;16.63;;;10.13;;
13234;SDS011;6683;48.506;9.050;2023-12-04T08:20:35;14.93;;;9.47;;
13234;SDS011;6683;48.506;9.050;2023-12-04T08:23:37;13.57;;;8.83;;
13234;SDS011;6683;48.506;9.050;2023-12-04T08:26:39;17.17;;;10.73;;
13234;SDS011;6683;48.506;9.050;2023-12-04T08:29:42;16.77;;;10.30;;
13234;SDS011;6683;48.506;9.050;2023-12-04T08:32:45;13.27;;;9.20;;
13234;SDS011;6683;48.506;9.050;2023-12-04T08:35:48;14.83;;;9.03;;
13234;SDS011;6683;48.506;9.050;2023-12-04T08:38:51;17.47;;;10.00;;
13234;SDS011;6683;48.506;9.050;2023-12-04T08:41:53;20.40;;;11.17;;
13234;SDS011;6683;48.506;9.050;2023-12-04T08:44:55;15.03;;;9.87;;
13234;SDS011;6683;48.506;9.050;2023-12-04T08:47:59;16.13;;;8.80;;
13234;SDS011;6683;48.506;9.050;2023-12-04T08:51:01;17.57;;;10.10;;
13234;SDS011;6683;48.506;9.050;2023-12-04T08:54:04;15.60;;;9.70;;
13234;SDS011;6683;48.506;9.050;2023-12-04T08:57:07;14.03;;;9.03;;
13234;SDS011;6683;48.506;9.050;2023-12-04T09:00:10;16.80;;;11.00;;
13234;SDS011;6683;48.506;9.050;2023-12-04T09:03:16;15.87;;;10.73;;
13234;SDS011;6683;48.506;9.050;2023-12-04T09:06:20;15.23;;;9.73;;
13234;SDS011;6683;48.506;9.050;2023-12-04T09:09:22;16.83;;;10.03;;
13234;SDS011;6683;48.506;9.050;2023-12-04T09:12:24;18.33;;;10.33;;
13234;SDS011;6683;48.506;9.050;2023-12-04T09:15:27;17.73;;;10.67;;
13234;SDS011;6683;48.506;9.050;2023-12-04T09:18:31;18.17;;;10.80;;
13234;SDS011;6683;48.506;9.050;2023-12-04T09:21:33;19.03;;;10.30;;
13234;SDS011;6683;48.506;9.050;2023-12-04T09:24:36;18.70;;;10.40;;
13234;SDS011;6683;48.506;9.050;2023-12-04T09:27:39;18.93;;;11.03;;
13234;SDS011;6683;48.506;9.050;2023-12-04T09:30:41;16.90;;;10.10;;
13234;SDS011;6683;48.506;9.050;2023-12-04T09:33:45;15.40;;;11.27;;
13234;SDS011;6683;48.506;9.050;2023-12-04T09:36:48;14.27;;;10.07;;
13234;SDS011;6683;48.506;9.050;2023-12-04T09:39:50;15.50;;;9.87;;
13234;SDS011;6683;48.506;9.050;2023-12-04T09:42:53;14.53;;;10.90;;
13234;SDS011;6683;48.506;9.050;2023-12-04T09:45:56;13.83;;;10.13;;
13234;SDS011;6683;48.506;9.050;2023-12-04T09:49:00;14.83;;;9.93;;
13234;SDS011;6683;48.506;9.050;2023-12-04T09:52:04;17.27;;;9.53;;
13234;SDS011;6683;48.506;9.050;2023-12-04T09:55:07;15.07;;;9.93;;
13234;SDS011;6683;48.506;9.050;2023-12-04T09:58:10;16.73;;;13.37;;
13234;SDS011;6683;48.506;9.050;2023-12-04T10:01:15;16.23;;;10.03;;
13234;SDS011;6683;48.506;9.050;2023-12-04T10:04:19;16.03;;;11.00;;
13234;SDS011;6683;48.506;9.050;2023-12-04T10:07:22;16.03;;;11.03;;
13234;SDS011;6683;48.506;9.050;2023-12-04T10:10:24;14.33;;;10.13;;
13234;SDS011;6683;48.506;9.050;2023-12-04T10:13:26;15.77;;;11.23;;
13234;SDS011;6683;48.506;9.050;2023-12-04T10:16:33;15.93;;;10.17;;
13234;SDS011;6683;48.506;9.050;2023-12-04T10:19:37;14.40;;;10.50;;
13234;SDS011;6683;48.506;9.050;2023-12-04T10:22:40;16.47;;;11.13;;
13234;SDS011;6683;48.506;9.050;2023-12-04T10:25:54;15.23;;;9.80;;
13234;SDS011;6683;48.506;9.050;2023-12-04T10:29:00;14.93;;;9.43;;
13234;SDS011;6683;48.506;9.050;2023-12-04T10:32:05;14.30;;;9.93;;
13234;SDS011;6683;48.506;9.050;2023-12-04T10:35:09;15.97;;;9.47;;
13234;SDS011;6683;48.506;9.050;2023-12-04T10:38:13;16.17;;;10.40;;
13234;SDS011;6683;48.506;9.050;2023-12-04T10:41:16;13.83;;;9.50;;
13234;SDS011;6683;48.506;9.050;2023-12-04T10:44:18;11.57;;;8.37;;
13234;SDS011;6683;48.506;9.050;2023-12-04T10:47:21;13.60;;;8.83;;
13234;SDS011;6683;48.506;9.050;2023-12-04T10:50:25;12.40;;;8.90;;
13234;SDS011;6683;48.506;9.050;2023-12-04T10:53:29;12.97;;;8.33;;
13234;SDS011;6683;48.506;9.050;2023-12-04T10:56:33;10.87;;;8.10;;
13234;SDS011;6683;48.506;9.050;2023-12-04T10:59:40;11.13;;;7.33;;
13234;SDS011;6683;48.506;9.050;2023-12-04T11:02:43;12.53;;;7.87;;
13234;SDS011;6683;48.506;9.050;2023-12-04T11:05:51;13.47;;;8.33;;
13234;SDS011;6683;48.506;9.050;2023-12-04T11:08:57;12.60;;;8.07;;
13234;SDS011;6683;48.506;9.050;2023-12-04T11:12:02;11.30;;;8.20;;
13234;SDS011;6683;48.506;9.050;2023-12-04T11:15:10;13.87;;;8.77;;
13234;SDS011;6683;48.506;9.050;2023-12-04T11:18:19;11.23;;;7.93;;
13234;SDS011;6683;48.506;9.050;2023-12-04T11:21:26;12.83;;;9.03;;
13234;SDS011;6683;48.506;9.050;2023-12-04T11:24:30;10.70;;;7.60;;
13234;SDS011;6683;48.506;9.050;2023-12-04T11:27:33;10.33;;;7.23;;
13234;SDS011;6683;48.506;9.050;2023-12-04T11:30:36;10.77;;;7.03;;
13234;SDS011;6683;48.506;9.050;2023-12-04T11:33:39;12.97;;;8.83;;
13234;SDS011;6683;48.506;9.050;2023-12-04T11:36:43;12.00;;;8.23;;
13234;SDS011;6683;48.506;9.050;2023-12-04T11:39:46;11.67;;;7.80;;
13234;SDS011;6683;48.506;9.050;2023-12-04T11:42:49;10.90;;;7.87;;
13234;SDS011;6683;48.506;9.050;2023-12-04T11:45:53;11.00;;;7.10;;
13234;SDS011;6683;48.506;9.050;2023-12-04T11:52:39;10.17;;;6.63;;
13234;SDS011;6683;48.506;9.050;2023-12-04T11:55:41;8.97;;;6.43;;
13234;SDS011;6683;48.506;9.050;2023-12-04T11:58:43;11.23;;;7.30;;
13234;SDS011;6683;48.506;9.050;2023-12-04T12:01:46;8.73;;;6.00;;
13234;SDS011;6683;48.506;9.050;2023-12-04T12:04:53;18.03;;;10.47;;
13234;SDS011;6683;48.506;9.050;2023-12-04T12:08:00;9.93;;;7.00;;
13234;SDS011;6683;48.506;9.050;2023-12-04T12:11:04;9.60;;;6.53;;
13234;SDS011;6683;48.506;9.050;2023-12-04T12:14:07;9.77;;;6.07;;
13234;SDS011;6683;48.506;9.050;2023-12-04T12:17:09;7.50;;;6.20;;
13234;SDS011;6683;48.506;9.050;2023-12-04T12:20:14;10.03;;;6.77;;
13234;SDS011;6683;48.506;9.050;2023-12-04T12:23:18;9.23;;;6.80;;
13234;SDS011;6683;48.506;9.050;2023-12-04T12:26:20;9.53;;;7.13;;
13234;SDS011;6683;48.506;9.050;2023-12-04T12:29:22;10.87;;;7.63;;
13234;SDS011;6683;48.506;9.050;2023-12-04T12:32:28;9.20;;;7.10;;
13234;SDS011;6683;48.506;9.050;2023-12-04T12:35:30;9.83;;;6.97;;
13234;SDS011;6683;48.506;9.050;2023-12-04T12:38:34;11.40;;;6.90;;
13234;SDS011;6683;48.506;9.050;2023-12-04T12:41:37;9.97;;;6.90;;
13234;SDS011;6683;48.506;9.050;2023-12-04T12:44:40;10.07;;;6.97;;
13234;SDS011;6683;48.506;9.050;2023-12-04T12:47:43;8.70;;;6.93;;
13234;SDS011;6683;48.506;9.050;2023-12-04T12:50:46;10.20;;;6.57;;
13234;SDS011;6683;48.506;9.050;2023-12-04T12:54:14;10.93;;;7.60;;
13234;SDS011;6683;48.506;9.050;2023-12-04T12:57:40;11.50;;;8.10;;
13234;SDS011;6683;48.506;9.050;2023-12-04T13:01:09;12.00;;;8.80;;
13234;SDS011;6683;48.506;9.050;2023-12-04T13:04:35;13.83;;;7.93;;
13234;SDS011;6683;48.506;9.050;2023-12-04T13:08:02;11.13;;;8.03;;
13234;SDS011;6683;48.506;9.050;2023-12-04T13:11:31;10.30;;;8.03;;
13234;SDS011;6683;48.506;9.050;2023-12-04T13:14:57;9.17;;;7.30;;
13234;SDS011;6683;48.506;9.050;2023-12-04T13:18:23;11.03;;;8.53;;
13234;SDS011;6683;48.506;9.050;2023-12-04T13:21:50;10.30;;;7.53;;
13234;SDS011;6683;48.506;9.050;2023-12-04T13:25:16;11.03;;;8.53;;
13234;SDS011;6683;48.506;9.050;2023-12-04T13:28:44;11.50;;;8.93;;
13234;SDS011;6683;48.506;9.050;2023-12-04T13:32:10;11.87;;;8.77;;
13234;SDS011;6683;48.506;9.050;2023-12-04T13:35:36;11.13;;;7.67;;
13234;SDS011;6683;48.506;9.050;2023-12-04T13:39:02;11.10;;;7.37;;
13234;SDS011;6683;48.506;9.050;2023-12-04T13:42:28;12.27;;;7.63;;
13234;SDS011;6683;48.506;9.050;2023-12-04T13:45:57;10.03;;;6.90;;
13234;SDS011;6683;48.506;9.050;2023-12-04T13:49:26;10.03;;;6.50;;
13234;SDS011;6683;48.506;9.050;2023-12-04T13:52:52;8.87;;;6.27;;
13234;SDS011;6683;48.506;9.050;2023-12-04T13:56:18;10.33;;;7.30;;
13234;SDS011;6683;48.506;9.050;2023-12-04T13:59:45;11.53;;;8.37;;
13234;SDS011;6683;48.506;9.050;2023-12-04T14:11:47;9.63;;;7.27;;
13234;SDS011;6683;48.506;9.050;2023-12-04T14:14:49;9.67;;;7.10;;
13234;SDS011;6683;48.506;9.050;2023-12-04T14:17:57;9.90;;;6.97;;
13234;SDS011;6683;48.506;9.050;2023-12-04T14:21:00;12.47;;;9.00;;
13234;SDS011;6683;48.506;9.050;2023-12-04T14:24:04;10.40;;;7.40;;
13234;SDS011;6683;48.506;9.050;2023-12-04T14:27:06;10.07;;;7.53;;
13234;SDS011;6683;48.506;9.050;2023-12-04T14:30:09;9.93;;;7.47;;
13234;SDS011;6683;48.506;9.050;2023-12-04T14:33:12;8.43;;;6.87;;
13234;SDS011;6683;48.506;9.050;2023-12-04T14:36:14;11.20;;;8.43;;
13234;SDS011;6683;48.506;9.050;2023-12-04T14:39:18;10.37;;;7.87;;
13234;SDS011;6683;48.506;9.050;2023-12-04T14:42:22;10.60;;;7.70;;
13234;SDS011;6683;48.506;9.050;2023-12-04T14:45:24;10.33;;;7.63;;
13234;SDS011;6683;48.506;9.050;2023-12-04T14:48:26;12.70;;;9.03;;
13234;SDS011;6683;48.506;9.050;2023-12-04T14:51:29;12.53;;;8.73;;
13234;SDS011;6683;48.506;9.050;2023-12-04T14:54:32;10.77;;;8.07;;
13234;SDS011;6683;48.506;9.050;2023-12-04T14:57:51;13.20;;;8.97;;
13234;SDS011;6683;48.506;9.050;2023-12-04T15:01:18;12.80;;;9.23;;
13234;SDS011;6683;48.506;9.050;2023-12-04T15:04:40;11.10;;;8.67;;
13234;SDS011;6683;48.506;9.050;2023-12-04T15:08:08;13.27;;;9.03;;
13234;SDS011;6683;48.506;9.050;2023-12-04T15:11:25;12.70;;;8.70;;
13234;SDS011;6683;48.506;9.050;2023-12-04T15:15:04;16.37;;;9.70;;
13234;SDS011;6683;48.506;9.050;2023-12-04T15:18:14;21.33;;;14.03;;
13234;SDS011;6683;48.506;9.050;2023-12-04T15:21:43;17.40;;;11.57;;
13234;SDS011;6683;48.506;9.050;2023-12-04T15:24:44;12.67;;;9.10;;
13234;SDS011;6683;48.506;9.050;2023-12-04T15:27:48;14.53;;;9.30;;
13234;SDS011;6683;48.506;9.050;2023-12-04T15:30:49;13.30;;;9.70;;
13234;SDS011;6683;48.506;9.050;2023-12-04T15:33:52;15.10;;;10.47;;
13234;SDS011;6683;48.506;9.050;2023-12-04T15:36:54;16.17;;;10.37;;
13234;SDS011;6683;48.506;9.050;2023-12-04T15:39:56;12.63;;;9.77;;
13234;SDS011;6683;48.506;9.050;2023-12-04T15:43:00;13.97;;;9.13;;
13234;SDS011;6683;48.506;9.050;2023-12-04T15:46:03;12.97;;;8.77;;
13234;SDS011;6683;48.506;9.050;2023-12-04T15:49:06;12.73;;;9.23;;
13234;SDS011;6683;48.506;9.050;2023-12-04T15:52:08;14.07;;;9.60;;
13234;SDS011;6683;48.506;9.050;2023-12-04T15:55:10;13.43;;;9.97;;
13234;SDS011;6683;48.506;9.050;2023-12-04T15:58:14;12.50;;;8.77;;
13234;SDS011;6683;48.506;9.050;2023-12-04T16:01:16;11.03;;;8.43;;
13234;SDS011;6683;48.506;9.050;2023-12-04T16:04:19;10.87;;;8.13;;
13234;SDS011;6683;48.506;9.050;2023-12-04T16:07:21;10.23;;;7.40;;
13234;SDS011;6683;48.506;9.050;2023-12-04T16:10:23;9.87;;;7.57;;
13234;SDS011;6683;48.506;9.050;2023-12-04T16:13:27;10.43;;;7.77;;
13234;SDS011;6683;48.506;9.050;2023-12-04T16:16:29;11.17;;;7.77;;
13234;SDS011;6683;48.506;9.050;2023-12-04T16:19:31;9.97;;;7.60;;
13234;SDS011;6683;48.506;9.050;2023-12-04T16:22:33;12.00;;;8.60;;
13234;SDS011;6683;48.506;9.050;2023-12-04T16:25:35;10.63;;;7.73;;
13234;SDS011;6683;48.506;9.050;2023-12-04T16:28:39;12.80;;;8.77;;
13234;SDS011;6683;48.506;9.050;2023-12-04T16:31:41;11.73;;;8.03;;
13234;SDS011;6683;48.506;9.050;2023-12-04T16:34:44;13.57;;;8.70;;
13234;SDS011;6683;48.506;9.050;2023-12-04T16:37:46;12.80;;;8.90;;
13234;SDS011;6683;48.506;9.050;2023-12-04T16:40:48;12.70;;;8.17;;
13234;SDS011;6683;48.506;9.050;2023-12-04T16:43:52;11.50;;;8.40;;
13234;SDS011;6683;48.506;9.050;2023-12-04T16:46:54;12.47;;;8.93;;
13234;SDS011;6683;48.506;9.050;2023-12-04T16:49:56;10.20;;;7.53;;
13234;SDS011;6683;48.506;9.050;2023-12-04T16:52:59;9.97;;;7.57;;
13234;SDS011;6683;48.506;9.050;2023-12-04T16:56:01;10.33;;;7.77;;
13234;SDS011;6683;48.506;9.050;2023-12-04T16:59:05;14.23;;;9.47;;
13234;SDS011;6683;48.506;9.050;2023-12-04T17:02:07;13.60;;;9.27;;
13234;SDS011;6683;48.506;9.050;2023-12-04T17:05:09;13.17;;;9.40;;
13234;SDS011;6683;48.506;9.050;2023-12-04T17:08:12;14.07;;;9.90;;
13234;SDS011;6683;48.506;9.050;2023-12-04T17:11:14;14.83;;;10.20;;
13234;SDS011;6683;48.506;9.050;2023-12-04T17:14:17;14.93;;;10.20;;
13234;SDS011;6683;48.506;9.050;2023-12-04T17:17:20;13.50;;;9.90;;
13234;SDS011;6683;48.506;9.050;2023-12-04T17:20:22;13.47;;;9.87;;
13234;SDS011;6683;48.506;9.050;2023-12-04T17:23:24;14.30;;;9.70;;
13234;SDS011;6683;48.506;9.050;2023-12-04T17:26:27;14.37;;;10.70;;
13234;SDS011;6683;48.506;9.050;2023-12-04T17:29:31;13.47;;;10.07;;
13234;SDS011;6683;48.506;9.050;2023-12-04T17:32:33;14.20;;;10.73;;
13234;SDS011;6683;48.506;9.050;2023-12-04T17:35:35;13.83;;;9.37;;
13234;SDS011;6683;48.506;9.050;2023-12-04T17:38:38;12.00;;;9.17;;
13234;SDS011;6683;48.506;9.050;2023-12-04T17:41:41;13.77;;;10.30;;
13234;SDS011;6683;48.506;9.050;2023-12-04T17:44:46;12.97;;;9.63;;
13234;SDS011;6683;48.506;9.050;2023-12-04T17:47:49;13.70;;;9.43;;
13234;SDS011;6683;48.506;9.050;2023-12-04T17:50:51;10.97;;;9.20;;
13234;SDS011;6683;48.506;9.050;2023-12-04T17:53:53;12.80;;;9.97;;
13234;SDS011;6683;48.506;9.050;2023-12-04T17:56:56;12.57;;;9.67;;
13234;SDS011;6683;48.506;9.050;2023-12-04T18:00:00;12.40;;;9.17;;
13234;SDS011;6683;48.506;9.050;2023-12-04T18:03:05;13.63;;;9.57;;
13234;SDS011;6683;48.506;9.050;2023-12-04T18:06:07;13.93;;;9.50;;
13234;SDS011;6683;48.506;9.050;2023-12-04T18:09:11;12.47;;;9.93;;
13234;SDS011;6683;48.506;9.050;2023-12-04T18:12:14;13.67;;;9.80;;
13234;SDS011;6683;48.506;9.050;2023-12-04T18:15:18;14.10;;;9.93;;
13234;SDS011;6683;48.506;9.050;2023-12-04T18:18:20;14.10;;;10.13;;
13234;SDS011;6683;48.506;9.050;2023-12-04T18:21:22;14.70;;;10.67;;
13234;SDS011;6683;48.506;9.050;2023-12-04T18:24:24;12.87;;;9.07;;
13234;SDS011;6683;48.506;9.050;2023-12-04T18:27:27;12.37;;;9.13;;
13234;SDS011;6683;48.506;9.050;2023-12-04T18:30:32;12.83;;;9.57;;
13234;SDS011;6683;48.506;9.050;2023-12-04T18:33:48;13.33;;;9.97;;
13234;SDS011;6683;48.506;9.050;2023-12-04T18:36:51;13.37;;;9.50;;
13234;SDS011;6683;48.506;9.050;2023-12-04T18:39:58;13.13;;;9.77;;
13234;SDS011;6683;48.506;9.050;2023-12-04T18:43:05;17.53;;;11.63;;
13234;SDS011;6683;48.506;9.050;2023-12-04T18:46:09;14.50;;;9.80;;